Time;durP1;ratioP1;P1;durP2;ratioP2;P2;SDS_P1;SDS_P2;PMS_P1;PMS_P2;Temp;Humidity;BMP_temperature;BMP_pressure;BME280_temperature;BME280_humidity;BME280_pressure;Samples;Min_cycle;Max_cycle;Signal;HPM_P1;HPM_P2
2022/06/17 00:01:35;;;;;;;5.85;4.63;;;;;;;12.95;91.29;102203.41;4971730;28;20261;-47
2022/06/17 00:04:01;;;;;;;7.13;5.05;;;;;;;12.84;91.15;102216.25;4971405;28;20257;-47
2022/06/17 00:06:41;;;;;;;8.35;4.70;;;;;;;12.87;91.23;102217.03;4971249;28;20245;-47
2022/06/17 00:09:07;;;;;;;6.43;5.07;;;;;;;12.96;91.58;102221.31;4971403;28;20157;-46
2022/06/17 00:11:37;;;;;;;7.03;5.78;;;;;;;13.10;91.30;102205.69;4971354;28;20197;-46
2022/06/17 00:14:05;;;;;;;8.95;6.55;;;;;;;13.07;91.55;102200.38;4971208;28;20634;-48
2022/06/17 00:16:31;;;;;;;8.50;6.20;;;;;;;13.07;91.87;102200.38;4971079;28;20186;-48
2022/06/17 00:18:57;;;;;;;8.52;6.88;;;;;;;13.00;91.65;102190.72;4971634;28;20196;-48
2022/06/17 00:21:28;;;;;;;7.32;6.55;;;;;;;12.97;92.03;102196.19;4971099;28;20202;-45
2022/06/17 00:23:54;;;;;;;7.75;6.95;;;;;;;12.89;91.79;102192.81;4970582;28;20186;-48
2022/06/17 00:26:20;;;;;;;7.68;6.55;;;;;;;12.88;91.86;102191.03;4971554;28;20280;-45
2022/06/17 00:28:48;;;;;;;7.60;6.10;;;;;;;12.96;92.39;102202.47;4971100;28;20178;-51
2022/06/17 00:31:14;;;;;;;6.47;5.75;;;;;;;12.95;92.52;102185.47;4986173;28;20174;-50
2022/06/17 00:33:40;;;;;;;8.32;6.75;;;;;;;12.99;92.36;102186.28;4970904;28;20201;-51
2022/06/17 00:36:09;;;;;;;9.88;8.02;;;;;;;12.96;92.29;102179.13;4957581;28;20185;-52
2022/06/17 00:38:36;;;;;;;10.00;8.43;;;;;;;12.98;92.53;102187.19;4975192;28;20186;-51
2022/06/17 00:41:12;;;;;;;10.30;9.25;;;;;;;12.76;93.19;102190.41;4989915;28;20843;-52
2022/06/17 00:43:38;;;;;;;10.88;9.77;;;;;;;12.69;94.43;102202.25;4957320;28;20173;-51
2022/06/17 00:46:29;;;;;;;11.88;10.68;;;;;;;12.62;95.56;102197.97;4975230;28;20648;-51
2022/06/17 00:49:18;;;;;;;15.93;11.80;;;;;;;12.57;96.83;102205.25;4974836;28;20273;-53
2022/06/17 00:51:53;;;;;;;13.77;12.40;;;;;;;12.55;97.69;102199.94;4957184;28;20654;-51
2022/06/17 00:54:41;;;;;;;13.10;11.73;;;;;;;12.54;98.32;102197.28;4957229;28;20196;-51
2022/06/17 00:57:29;;;;;;;12.80;11.20;;;;;;;12.67;98.04;102193.34;4957140;28;20170;-51
2022/06/17 01:00:00;;;;;;;15.38;13.05;;;;;;;12.57;97.89;102191.81;4989982;28;20739;-52
2022/06/17 01:02:29;;;;;;;13.20;11.90;;;;;;;12.60;97.60;102204.31;4957438;28;20234;-52
2022/06/17 01:04:55;;;;;;;14.68;12.80;;;;;;;12.48;97.12;102209.03;4974266;28;20233;-52
2022/06/17 01:07:27;;;;;;;12.65;11.45;;;;;;;12.58;97.18;102202.53;4957252;28;20210;-51
2022/06/17 01:09:57;;;;;;;12.73;11.48;;;;;;;12.66;96.97;102202.34;4989485;28;20158;-52
2022/06/17 01:12:37;;;;;;;17.40;14.23;;;;;;;12.54;96.44;102191.88;4974941;28;20200;-52
2022/06/17 01:15:04;;;;;;;13.63;12.23;;;;;;;12.58;96.54;102191.78;4973984;28;20684;-51
2022/06/17 01:17:37;;;;;;;13.82;12.13;;;;;;;12.65;96.44;102181.75;4957443;28;20189;-51
2022/06/17 01:20:08;;;;;;;15.05;13.48;;;;;;;12.61;95.84;102188.13;4956548;28;20259;-51
2022/06/17 01:22:42;;;;;;;16.05;13.15;;;;;;;12.58;95.64;102189.09;4974873;28;20182;-52
2022/06/17 01:25:47;;;;;;;15.45;13.85;;;;;;;12.47;95.22;102195.66;4989001;28;20284;-52
2022/06/17 01:28:17;;;;;;;14.98;13.48;;;;;;;12.24;95.09;102207.81;4933602;29;20186;-51
2022/06/17 01:30:54;;;;;;;16.40;13.95;;;;;;;12.16;95.81;102220.56;4967040;28;20547;-51
2022/06/17 01:33:25;;;;;;;21.20;18.95;;;;;;;12.26;98.80;102216.72;4956318;28;20193;-53
2022/06/17 01:36:04;;;;;;;24.80;22.30;;;;;;;12.24;100.00;102217.69;4974216;28;20627;-51
2022/06/17 01:38:33;;;;;;;23.67;20.40;;;;;;;12.29;100.00;102215.81;4956219;28;20199;-50
2022/06/17 01:41:01;;;;;;;25.15;21.85;;;;;;;12.41;100.00;102222.69;4974372;28;20213;-51
2022/06/17 01:43:38;;;;;;;19.48;17.30;;;;;;;12.45;100.00;102211.81;4973767;28;20173;-52
2022/06/17 01:46:09;;;;;;;20.25;18.10;;;;;;;12.41;100.00;102226.25;4973177;28;20194;-50
2022/06/17 01:48:37;;;;;;;19.08;16.98;;;;;;;12.29;100.00;102224.75;4973718;28;20591;-51
2022/06/17 01:51:06;;;;;;;19.45;15.50;;;;;;;12.27;100.00;102225.69;4973619;28;20190;-52
2022/06/17 01:53:38;;;;;;;21.55;19.45;;;;;;;12.17;100.00;102227.69;4956052;28;20170;-52
2022/06/17 01:56:34;;;;;;;20.73;18.50;;;;;;;12.28;100.00;102222.06;4956240;28;20697;-52
2022/06/17 01:59:05;;;;;;;25.52;19.75;;;;;;;12.10;100.00;102228.75;4954405;28;20217;-50
2022/06/17 02:01:34;;;;;;;17.67;15.88;;;;;;;12.22;100.00;102232.97;4988343;28;20558;-50
2022/06/17 02:04:08;;;;;;;25.83;20.83;;;;;;;12.13;100.00;102239.41;4988045;28;20200;-52
2022/06/17 02:06:50;;;;;;;21.08;18.20;;;;;;;12.19;100.00;102241.09;4955893;28;20206;-51
2022/06/17 02:09:17;;;;;;;21.73;18.65;;;;;;;12.21;100.00;102233.91;4956442;28;20657;-51
2022/06/17 02:11:46;;;;;;;26.23;20.85;;;;;;;12.15;100.00;102235.78;4987972;28;20591;-52
2022/06/17 02:14:15;;;;;;;23.98;19.38;;;;;;;12.19;100.00;102227.66;4972846;28;20163;-51
2022/06/17 02:16:52;;;;;;;19.30;17.30;;;;;;;12.29;100.00;102242.69;4987646;28;20240;-53
2022/06/17 02:19:40;;;;;;;21.45;18.98;;;;;;;12.24;100.00;102247.25;4969208;28;20294;-52
2022/06/17 02:22:35;;;;;;;25.25;22.23;;;;;;;12.12;100.00;102248.41;5004067;28;20182;-51
2022/06/17 02:25:04;;;;;;;26.17;23.02;;;;;;;12.08;100.00;102235.97;4972560;28;20213;-52
2022/06/17 02:27:33;;;;;;;27.48;23.88;;;;;;;12.10;100.00;102243.06;4971716;28;20189;-53
2022/06/17 02:30:00;;;;;;;26.13;22.40;;;;;;;12.09;100.00;102241.31;4971474;28;20714;-52
2022/06/17 02:32:26;;;;;;;25.48;22.75;;;;;;;12.01;100.00;102245.09;4973040;28;20712;-53
2022/06/17 02:35:00;;;;;;;24.60;22.02;;;;;;;12.05;100.00;102239.59;5003194;28;20205;-51
2022/06/17 02:37:27;;;;;;;26.70;23.90;;;;;;;11.99;100.00;102238.84;4971689;28;20192;-53
2022/06/17 02:39:57;;;;;;;30.45;23.77;;;;;;;12.08;100.00;102235.97;5003483;28;20574;-52
2022/06/17 02:42:26;;;;;;;28.08;23.15;;;;;;;11.97;100.00;102238.88;5003811;28;20256;-53
2022/06/17 02:45:07;;;;;;;27.20;21.95;;;;;;;11.91;100.00;102245.25;5003274;28;20202;-53
2022/06/17 02:47:32;;;;;;;29.05;20.90;;;;;;;11.97;100.00;102240.69;5003340;28;20182;-52
2022/06/17 02:49:59;;;;;;;25.83;22.63;;;;;;;11.97;100.00;102246.06;4972651;28;20253;-51
2022/06/17 02:52:34;;;;;;;20.15;18.25;;;;;;;12.03;100.00;102241.44;4987281;28;20601;-51
2022/06/17 02:55:06;;;;;;;20.58;18.13;;;;;;;11.91;100.00;102233.63;4986670;28;20206;-52
2022/06/17 02:57:32;;;;;;;21.27;19.13;;;;;;;11.69;100.00;102233.16;4954998;28;20209;-51
2022/06/17 03:00:17;;;;;;;19.92;17.88;;;;;;;11.77;100.00;102241.06;4987338;28;20213;-52
2022/06/17 03:02:52;;;;;;;19.92;17.83;;;;;;;11.65;100.00;102237.69;4986883;28;20173;-51
2022/06/17 03:05:25;;;;;;;21.00;18.08;;;;;;;11.66;100.00;102250.22;4954539;28;20285;-51
2022/06/17 03:07:52;;;;;;;19.73;16.35;;;;;;;11.66;100.00;102235.91;4986732;28;20190;-53
2022/06/17 03:10:31;;;;;;;19.77;17.73;;;;;;;11.39;100.00;102231.97;4954804;28;20687;-50
2022/06/17 03:13:02;;;;;;;18.00;15.73;;;;;;;11.53;100.00;102232.59;4987112;28;20256;-53
2022/06/17 03:15:28;;;;;;;18.25;16.05;;;;;;;11.46;100.00;102236.31;4972230;28;20632;-52
2022/06/17 03:17:54;;;;;;;18.92;17.02;;;;;;;11.45;100.00;102224.69;4972263;28;20273;-51
2022/06/17 03:20:28;;;;;;;18.65;16.65;;;;;;;11.47;100.00;102217.47;4970807;28;20193;-51
2022/06/17 03:22:59;;;;;;;16.73;14.90;;;;;;;11.46;100.00;102218.41;4970755;28;20174;-51
2022/06/17 03:25:34;;;;;;;16.88;15.13;;;;;;;11.49;100.00;102221.03;4954633;28;20202;-51
2022/06/17 03:28:06;;;;;;;14.85;13.35;;;;;;;11.60;100.00;102225.31;4987217;28;20182;-52
2022/06/17 03:30:46;;;;;;;18.75;16.75;;;;;;;11.58;100.00;102227.13;4986962;28;20249;-51
2022/06/17 03:33:55;;;;;;;17.00;15.27;;;;;;;11.63;100.00;102228.81;4986368;28;20174;-52
2022/06/17 03:36:32;;;;;;;17.13;15.27;;;;;;;11.70;100.00;102224.22;4896183;29;20589;-52
2022/06/17 03:39:02;;;;;;;18.08;16.17;;;;;;;11.65;100.00;102226.97;4950615;28;20260;-54
2022/06/17 03:42:00;;;;;;;18.65;16.65;;;;;;;11.60;100.00;102218.13;4971916;28;20256;-52
2022/06/17 03:44:34;;;;;;;16.67;15.02;;;;;;;11.64;100.00;102218.97;4986262;28;20268;-52
2022/06/17 03:47:04;;;;;;;17.15;15.32;;;;;;;11.74;100.00;102215.16;4971688;28;20311;-51
2022/06/17 03:49:41;;;;;;;17.05;15.32;;;;;;;11.79;100.00;102213.28;4970477;28;20190;-51
2022/06/17 03:52:21;;;;;;;20.60;17.10;;;;;;;11.63;100.00;102215.41;4986806;28;20527;-53
2022/06/17 03:54:49;;;;;;;19.55;17.45;;;;;;;11.72;100.00;102214.31;4986001;28;20202;-51
2022/06/17 03:57:16;;;;;;;22.30;18.13;;;;;;;11.70;100.00;102205.41;4984900;28;20712;-51
2022/06/17 03:59:45;;;;;;;21.08;18.88;;;;;;;11.84;100.00;102205.13;4971021;28;20229;-52
2022/06/17 04:02:15;;;;;;;20.30;17.63;;;;;;;11.91;100.00;102202.28;4954214;28;20201;-52
2022/06/17 04:04:45;;;;;;;22.02;18.92;;;;;;;11.80;100.00;102198.91;4985886;28;20580;-52
2022/06/17 04:07:12;;;;;;;19.35;17.42;;;;;;;11.71;100.00;102208.03;4984657;28;20607;-53
2022/06/17 04:09:42;;;;;;;21.30;17.88;;;;;;;11.74;100.00;102196.34;4985581;28;20256;-50
2022/06/17 04:12:12;;;;;;;20.02;17.92;;;;;;;11.69;100.00;102193.78;4985881;28;20185;-51
2022/06/17 04:14:54;;;;;;;20.85;18.65;;;;;;;11.80;100.00;102201.59;4953927;28;20283;-53
2022/06/17 04:17:28;;;;;;;20.85;18.75;;;;;;;11.90;100.00;102210.41;4953915;28;20758;-52
2022/06/17 04:20:04;;;;;;;21.98;19.73;;;;;;;12.00;100.00;102206.56;4953696;28;20209;-53
2022/06/17 04:22:35;;;;;;;20.95;18.75;;;;;;;12.04;100.00;102200.22;4985897;28;20178;-51
2022/06/17 04:25:40;;;;;;;23.13;18.55;;;;;;;12.15;100.00;102205.34;4970407;28;20202;-52
2022/06/17 04:28:10;;;;;;;29.23;25.05;;;;;;;12.25;100.00;102209.59;4971018;28;20162;-52
2022/06/17 04:30:48;;;;;;;28.92;25.73;;;;;;;12.40;100.00;102210.13;4986194;28;20185;-50
2022/06/17 04:33:27;;;;;;;35.25;30.30;;;;;;;12.47;100.00;102195.66;4985756;28;20348;-51
2022/06/17 04:36:09;;;;;;;32.58;25.88;;;;;;;12.61;100.00;102200.69;4953707;28;20305;-50
2022/06/17 04:38:49;;;;;;;31.15;27.33;;;;;;;12.68;100.00;102192.44;4953775;28;20186;-48
2022/06/17 04:41:33;;;;;;;38.10;31.90;;;;;;;12.79;100.00;102200.25;4985843;28;20214;-48
2022/06/17 04:44:10;;;;;;;38.42;32.00;;;;;;;12.85;100.00;102200.06;4970867;28;20245;-50
2022/06/17 04:46:42;;;;;;;35.22;30.60;;;;;;;12.94;100.00;102196.25;4953479;28;20210;-50
2022/06/17 04:49:24;;;;;;;35.15;31.08;;;;;;;13.04;100.00;102196.91;4985749;28;20539;-49
2022/06/17 04:51:56;;;;;;;36.97;30.40;;;;;;;13.11;100.00;102199.38;4970943;28;20182;-48
2022/06/17 04:54:22;;;;;;;35.60;28.98;;;;;;;13.25;100.00;102198.13;4969193;28;20645;-49
2022/06/17 04:57:05;;;;;;;40.00;30.05;;;;;;;13.18;100.00;102214.47;4985897;28;20557;-49
2022/06/17 04:59:47;;;;;;;35.17;29.73;;;;;;;13.33;100.00;102213.16;4985694;28;20206;-50
2022/06/17 05:02:24;;;;;;;34.13;30.52;;;;;;;13.45;100.00;102211.97;4985240;28;20217;-48
2022/06/17 05:05:33;;;;;;;37.17;28.98;;;;;;;13.54;100.00;102217.06;4987951;28;20236;-47
2022/06/17 05:08:03;;;;;;;28.10;24.25;;;;;;;13.69;100.00;102220.28;4972388;28;20189;-47
2022/06/17 05:10:40;;;;;;;34.50;27.77;;;;;;;13.81;100.00;102214.50;4985952;28;20225;-50
2022/06/17 05:13:35;;;;;;;30.38;25.77;;;;;;;13.89;100.00;102211.59;4970323;28;20287;-48
2022/06/17 05:16:01;;;;;;;31.30;27.30;;;;;;;13.90;100.00;102219.63;4951974;28;20218;-49
2022/06/17 05:18:27;;;;;;;26.95;23.55;;;;;;;14.00;100.00;102213.03;4970991;28;20741;-47
2022/06/17 05:21:07;;;;;;;30.80;24.70;;;;;;;14.13;100.00;102215.34;4970471;28;20715;-51
2022/06/17 05:23:33;;;;;;;28.83;25.63;;;;;;;14.17;100.00;102214.34;4989051;28;20205;-48
2022/06/17 05:26:00;;;;;;;26.20;22.05;;;;;;;14.33;100.00;102220.13;4988861;28;20567;-49
2022/06/17 05:28:26;;;;;;;32.30;24.35;;;;;;;14.35;100.00;102224.53;4989212;28;20237;-50
2022/06/17 05:31:00;;;;;;;26.80;23.55;;;;;;;14.51;100.00;102226.72;4972948;28;20177;-49
2022/06/17 05:33:47;;;;;;;26.27;22.73;;;;;;;14.49;100.00;102220.50;4972529;28;20177;-49
2022/06/17 05:36:13;;;;;;;25.13;22.40;;;;;;;14.42;100.00;102226.09;4989282;28;20286;-48
2022/06/17 05:38:39;;;;;;;26.90;22.40;;;;;;;14.46;100.00;102226.88;4972529;28;20192;-49
2022/06/17 05:41:06;;;;;;;26.00;21.88;;;;;;;14.63;100.00;102219.16;4988910;28;20213;-48
2022/06/17 05:43:33;;;;;;;24.75;20.00;;;;;;;14.82;100.00;102224.84;4988090;28;20591;-48
2022/06/17 05:45:59;;;;;;;21.10;18.80;;;;;;;14.84;100.00;102232.84;4988919;28;20323;-46
2022/06/17 05:48:43;;;;;;;20.63;18.30;;;;;;;14.94;100.00;102226.22;4988311;28;20201;-48
2022/06/17 05:51:27;;;;;;;18.63;16.50;;;;;;;15.09;100.00;102215.84;4971768;28;20197;-49
2022/06/17 05:54:08;;;;;;;19.58;17.45;;;;;;;15.02;100.00;102225.94;4986045;28;20178;-50
2022/06/17 05:56:37;;;;;;;21.80;15.30;;;;;;;15.15;99.87;102221.00;4988588;28;20583;-49
2022/06/17 05:59:03;;;;;;;16.45;13.45;;;;;;;15.11;99.28;102228.34;4973147;28;20182;-46
2022/06/17 06:01:29;;;;;;;16.95;15.15;;;;;;;15.27;98.71;102228.69;4973573;28;20216;-48
2022/06/17 06:03:55;;;;;;;16.85;15.13;;;;;;;15.37;98.08;102224.72;4988567;28;20679;-48
2022/06/17 06:06:21;;;;;;;17.85;15.15;;;;;;;15.39;97.94;102227.34;4988416;28;20194;-49
2022/06/17 06:08:50;;;;;;;17.27;14.85;;;;;;;15.57;97.18;102215.03;4992726;28;20186;-48
2022/06/17 06:11:15;;;;;;;17.52;15.65;;;;;;;15.57;95.93;102223.13;4956183;28;20614;-49
2022/06/17 06:13:43;;;;;;;15.50;13.90;;;;;;;15.99;94.89;102220.63;4987481;28;20269;-50
2022/06/17 06:16:11;;;;;;;16.77;14.98;;;;;;;16.19;93.20;102216.28;4987908;28;20261;-48
2022/06/17 06:18:45;;;;;;;17.08;14.35;;;;;;;16.22;91.91;102214.34;4955720;28;20562;-47
2022/06/17 06:21:19;;;;;;;16.20;13.55;;;;;;;16.46;91.39;102216.97;4988796;28;20267;-49
2022/06/17 06:23:46;;;;;;;16.08;13.68;;;;;;;16.54;90.10;102224.81;4964930;28;20559;-47
2022/06/17 06:26:20;;;;;;;15.27;13.73;;;;;;;16.77;89.86;102222.03;4987436;28;20194;-49
2022/06/17 06:28:51;;;;;;;17.17;13.40;;;;;;;16.64;89.50;102220.78;4971812;28;20174;-43
2022/06/17 06:31:33;;;;;;;15.45;11.13;;;;;;;17.06;88.12;102219.94;4971900;28;20634;-46
2022/06/17 06:34:03;;;;;;;10.02;8.93;;;;;;;17.52;86.18;102222.44;4989321;28;20182;-44
2022/06/17 06:36:37;;;;;;;12.25;8.35;;;;;;;17.90;84.42;102223.41;5004490;28;20198;-44
2022/06/17 06:39:03;;;;;;;12.15;8.85;;;;;;;17.67;83.56;102236.16;4971893;28;20604;-45
2022/06/17 06:41:29;;;;;;;10.18;8.27;;;;;;;17.95;83.36;102225.91;5004619;28;20325;-46
2022/06/17 06:43:55;;;;;;;42.05;9.43;;;;;;;18.26;81.94;102228.06;5004118;28;20265;-43
2022/06/17 06:46:39;;;;;;;15.25;9.38;;;;;;;17.71;81.14;102237.78;4973295;28;20217;-45
2022/06/17 06:49:05;;;;;;;30.38;9.00;;;;;;;18.36;81.36;102236.63;4972689;28;20586;-47
2022/06/17 06:51:32;;;;;;;12.43;8.38;;;;;;;18.40;80.59;102243.66;5004525;28;20167;-43
2022/06/17 06:53:58;;;;;;;8.85;7.70;;;;;;;18.96;79.14;102225.50;5004133;28;20646;-45
2022/06/17 06:56:24;;;;;;;12.75;8.60;;;;;;;18.55;77.55;102239.31;4972773;28;20309;-46
2022/06/17 06:58:50;;;;;;;11.95;9.20;;;;;;;18.04;81.50;102230.91;4970719;28;20584;-45
2022/06/17 07:01:15;;;;;;;19.10;8.27;;;;;;;18.71;80.17;102227.59;4972202;28;20194;-47
2022/06/17 07:03:41;;;;;;;8.18;7.30;;;;;;;18.87;77.25;102226.84;4970962;28;20269;-43
2022/06/17 07:06:06;;;;;;;8.00;6.40;;;;;;;19.40;77.18;102216.91;5003396;28;20625;-47
2022/06/17 07:08:35;;;;;;;10.88;7.70;;;;;;;18.68;77.39;102224.19;5004001;28;20173;-44
2022/06/17 07:11:02;;;;;;;9.60;7.15;;;;;;;19.55;76.09;102211.50;4972609;28;20170;-44
2022/06/17 07:13:29;;;;;;;8.85;8.00;;;;;;;19.41;74.45;102218.63;4972003;28;20170;-46
2022/06/17 07:15:55;;;;;;;9.15;6.78;;;;;;;19.49;73.98;102219.97;4972565;28;20201;-45
2022/06/17 07:18:25;;;;;;;9.35;7.30;;;;;;;19.03;73.94;102221.53;4972692;28;20261;-43
2022/06/17 07:20:55;;;;;;;9.18;7.40;;;;;;;18.77;75.69;102217.41;4972454;28;20202;-47
2022/06/17 07:23:33;;;;;;;6.07;5.38;;;;;;;19.11;72.93;102213.84;4972581;28;20201;-46
2022/06/17 07:26:07;;;;;;;9.27;5.65;;;;;;;19.05;71.74;102212.34;4987120;28;20300;-45
2022/06/17 07:28:33;;;;;;;8.85;5.25;;;;;;;19.48;70.46;102217.34;4972451;28;20174;-47
2022/06/17 07:30:59;;;;;;;8.50;4.78;;;;;;;19.98;70.82;102212.84;4972016;28;20178;-47
2022/06/17 07:33:27;;;;;;;9.07;5.30;;;;;;;19.62;70.16;102214.78;4972276;28;20174;-48
2022/06/17 07:35:57;;;;;;;7.47;4.70;;;;;;;20.02;69.22;102207.16;4971994;28;20216;-47
2022/06/17 07:41:13;;;;;;;7.05;4.90;;;;;;;19.39;69.01;102204.25;4972067;28;20202;-44
2022/06/17 07:43:38;;;;;;;5.53;4.55;;;;;;;19.71;66.88;102191.66;4971237;28;20266;-43
2022/06/17 07:46:06;;;;;;;4.30;3.35;;;;;;;19.82;67.43;102200.09;4972262;28;20226;-45
2022/06/17 07:48:32;;;;;;;5.90;3.63;;;;;;;19.51;66.39;102190.00;4971915;28;20219;-44
2022/06/17 07:50:58;;;;;;;7.50;3.55;;;;;;;20.23;64.05;102185.16;4971968;28;20158;-44
2022/06/17 07:53:28;;;;;;;5.07;2.80;;;;;;;20.32;63.84;102187.34;4972222;28;20170;-45
2022/06/17 07:55:55;;;;;;;3.92;2.88;;;;;;;20.20;62.91;102190.75;4971800;28;20198;-46
2022/06/17 07:58:21;;;;;;;5.25;3.17;;;;;;;20.39;62.85;102180.56;4971960;28;20170;-43
2022/06/17 08:00:47;;;;;;;3.97;2.85;;;;;;;21.09;61.20;102175.50;4971880;28;20656;-46
2022/06/17 08:03:15;;;;;;;5.57;2.90;;;;;;;20.25;63.18;102172.34;4971810;28;20174;-43
2022/06/17 08:05:43;;;;;;;6.40;3.80;;;;;;;20.38;63.83;102173.38;4971729;28;20206;-44
2022/06/17 08:08:10;;;;;;;5.20;2.92;;;;;;;20.26;62.90;102177.66;4986907;28;20534;-43
2022/06/17 08:10:37;;;;;;;3.90;2.75;;;;;;;20.50;61.31;102174.50;4971638;28;20225;-43
2022/06/17 08:13:06;;;;;;;5.47;2.90;;;;;;;21.14;59.29;102172.50;4970930;28;20580;-46
2022/06/17 08:15:32;;;;;;;5.18;3.20;;;;;;;20.97;60.28;102162.66;4970614;28;20292;-42
2022/06/17 08:17:59;;;;;;;4.10;2.72;;;;;;;21.57;58.72;102168.00;4969991;28;20679;-43
2022/06/17 08:20:32;;;;;;;5.40;3.20;;;;;;;20.95;58.89;102164.59;4969795;28;20282;-44
2022/06/17 08:22:58;;;;;;;5.75;3.08;;;;;;;20.66;61.36;102180.84;4972022;28;20174;-44
2022/06/17 08:25:23;;;;;;;5.20;2.95;;;;;;;21.08;60.01;102170.13;4971582;28;20268;-44
2022/06/17 08:27:53;;;;;;;5.20;3.55;;;;;;;21.34;59.81;102172.16;4971439;28;20173;-45
2022/06/17 08:30:22;;;;;;;6.38;3.20;;;;;;;21.59;60.37;102176.97;4971283;28;20683;-46
2022/06/17 08:32:51;;;;;;;6.40;3.88;;;;;;;21.44;58.79;102172.47;4971471;28;20193;-44
2022/06/17 08:35:21;;;;;;;4.03;2.95;;;;;;;21.35;59.12;102170.28;4953725;28;20586;-50
2022/06/17 08:37:51;;;;;;;5.43;2.80;;;;;;;21.71;58.73;102160.78;4971262;28;20252;-48
2022/06/17 08:40:44;;;;;;;5.35;2.50;;;;;;;21.14;57.45;102161.59;4971088;28;20578;-49
2022/06/17 08:43:37;;;;;;;4.47;2.08;;;;;;;21.42;60.83;102157.19;4970773;28;20629;-51
2022/06/17 08:46:02;;;;;;;5.95;2.70;;;;;;;21.84;57.76;102152.69;4971104;28;20579;-48
2022/06/17 08:48:52;;;;;;;3.47;2.15;;;;;;;21.90;56.24;102163.22;4970758;28;20189;-51
2022/06/17 08:51:33;;;;;;;6.07;2.80;;;;;;;22.16;57.05;102154.19;4985575;28;20225;-49
2022/06/17 08:54:08;;;;;;;5.63;2.78;;;;;;;22.46;55.61;102157.75;4993462;28;20600;-47
2022/06/17 08:56:52;;;;;;;5.80;2.95;;;;;;;22.66;57.15;102164.59;4974591;28;20569;-48
2022/06/17 08:59:35;;;;;;;4.05;2.80;;;;;;;22.69;56.11;102167.97;4975115;28;20510;-49
2022/06/17 09:02:20;;;;;;;7.53;3.25;;;;;;;22.75;55.82;102158.50;4974482;28;20189;-47
2022/06/17 09:05:06;;;;;;;4.07;2.40;;;;;;;22.13;58.06;102168.03;4974834;28;20228;-48
2022/06/17 09:07:50;;;;;;;5.72;3.00;;;;;;;21.74;56.84;102166.94;4963373;28;20203;-49
2022/06/17 09:10:28;;;;;;;4.22;2.88;;;;;;;21.81;55.75;102146.44;4974621;28;20221;-48
2022/06/17 09:13:08;;;;;;;5.50;2.38;;;;;;;21.37;55.96;102152.00;4974677;28;20184;-51
2022/06/17 09:15:44;;;;;;;5.05;2.20;;;;;;;21.88;57.85;102159.69;4972933;28;20283;-46
2022/06/17 09:18:09;;;;;;;7.90;2.15;;;;;;;21.36;56.68;102153.84;4974262;28;20295;-48
2022/06/17 09:20:44;;;;;;;4.38;2.30;;;;;;;21.65;56.27;102166.66;4973672;28;20318;-50
2022/06/17 09:23:13;;;;;;;3.45;2.00;;;;;;;21.86;56.06;102161.66;4973708;28;20189;-50
2022/06/17 09:25:42;;;;;;;3.72;2.28;;;;;;;22.24;55.16;102156.44;4973512;28;20748;-47
2022/06/17 09:28:34;;;;;;;3.95;2.30;;;;;;;22.21;55.73;102156.59;4974109;28;20631;-48
2022/06/17 09:31:05;;;;;;;3.85;2.53;;;;;;;22.40;55.36;102161.75;4964433;28;20709;-47
2022/06/17 09:33:45;;;;;;;3.92;2.90;;;;;;;22.84;54.03;102152.38;4973371;28;20213;-47
2022/06/17 09:36:17;;;;;;;6.30;3.10;;;;;;;23.04;54.50;102142.81;4974431;28;20740;-47
2022/06/17 09:39:22;;;;;;;4.43;3.10;;;;;;;23.04;53.43;102151.03;4972696;28;20570;-48
2022/06/17 09:42:03;;;;;;;6.25;3.75;;;;;;;22.52;55.95;102162.78;4973766;28;20209;-47
2022/06/17 09:44:38;;;;;;;7.38;3.60;;;;;;;22.87;55.54;102149.44;4973537;28;20269;-46
2022/06/17 09:47:29;;;;;;;4.00;3.60;;;;;;;22.54;55.38;102147.16;4974287;28;20165;-48
2022/06/17 09:50:04;;;;;;;5.75;3.72;;;;;;;22.76;56.18;102142.00;4974235;28;20232;-47
2022/06/17 09:52:38;;;;;;;5.65;3.53;;;;;;;22.82;55.78;102129.75;4974164;28;20181;-46
2022/06/17 09:55:17;;;;;;;6.47;3.13;;;;;;;22.69;56.52;102132.44;4975601;28;20283;-47
2022/06/17 09:58:06;;;;;;;5.93;3.92;;;;;;;22.59;55.58;102137.69;4975390;28;20220;-49
2022/06/17 10:00:49;;;;;;;7.70;4.45;;;;;;;21.88;58.14;102137.88;4975718;28;20331;-46
2022/06/17 10:03:22;;;;;;;4.38;3.75;;;;;;;22.82;57.04;102118.81;4975337;28;20699;-45
2022/06/17 10:06:00;;;;;;;5.15;3.97;;;;;;;22.41;56.19;102128.88;4976071;28;20205;-47
2022/06/17 10:08:44;;;;;;;5.85;4.13;;;;;;;22.60;55.73;102120.28;4975516;28;20327;-47
2022/06/17 10:11:20;;;;;;;3.78;2.85;;;;;;;21.95;55.93;102123.75;4976611;28;20154;-48
2022/06/17 10:14:19;;;;;;;3.92;2.88;;;;;;;22.28;55.26;102125.25;4975940;28;20161;-45
2022/06/17 10:19:37;;;;;;;3.90;3.00;;;;;;;22.71;55.35;102116.81;4976121;28;20173;-46
2022/06/17 10:22:13;;;;;;;5.03;3.95;;;;;;;22.40;55.48;102134.44;4975849;28;20502;-48
2022/06/17 10:24:50;;;;;;;4.47;3.70;;;;;;;22.96;55.19;102126.06;4974881;28;20668;-48
2022/06/17 10:27:27;;;;;;;7.93;4.43;;;;;;;23.21;54.16;102126.09;4975737;28;20189;-49
2022/06/17 10:30:06;;;;;;;5.43;4.47;;;;;;;22.49;54.92;102127.47;4975596;28;20185;-45
2022/06/17 10:32:40;;;;;;;4.63;3.53;;;;;;;22.77;55.05;102131.94;4975784;28;20184;-46
2022/06/17 10:35:14;;;;;;;6.60;4.72;;;;;;;22.06;55.54;102127.59;4974424;28;20657;-47
2022/06/17 10:37:39;;;;;;;6.53;4.28;;;;;;;22.51;56.64;102147.38;4975595;28;20208;-45
2022/06/17 10:40:09;;;;;;;7.63;5.72;;;;;;;22.21;56.63;102138.41;4975077;28;20193;-47
2022/06/17 10:42:35;;;;;;;8.10;4.95;;;;;;;21.92;57.86;102143.03;4975418;28;20181;-48
2022/06/17 10:45:01;;;;;;;6.25;4.00;;;;;;;21.98;58.64;102141.75;4975458;28;20258;-47
2022/06/17 10:47:53;;;;;;;6.63;4.00;;;;;;;21.94;58.87;102148.38;4974873;28;20174;-46
2022/06/17 10:50:25;;;;;;;7.93;4.60;;;;;;;21.96;60.22;102151.91;4975111;28;20209;-48
2022/06/17 10:52:56;;;;;;;6.65;3.72;;;;;;;22.60;58.32;102136.69;4973671;28;20657;-48
2022/06/17 10:55:36;;;;;;;7.68;4.80;;;;;;;22.57;59.22;102150.56;4973633;28;20256;-47
2022/06/17 10:58:09;;;;;;;7.50;4.95;;;;;;;22.08;60.12;102148.34;4973266;28;20660;-47
2022/06/17 11:00:43;;;;;;;7.10;4.75;;;;;;;22.39;59.54;102149.97;4973466;28;20208;-48
2022/06/17 11:03:25;;;;;;;10.80;5.82;;;;;;;22.16;58.60;102146.00;4973209;28;20249;-46
2022/06/17 11:05:56;;;;;;;6.43;3.47;;;;;;;22.73;58.77;102141.31;4973181;28;20206;-48
2022/06/17 11:08:28;;;;;;;7.95;4.13;;;;;;;22.76;59.06;102144.72;4973080;28;20193;-46
2022/06/17 11:10:57;;;;;;;6.13;4.80;;;;;;;22.24;59.47;102144.63;4972431;28;20170;-47
2022/06/17 11:13:24;;;;;;;7.10;4.90;;;;;;;22.30;59.78;102152.41;4972524;28;20286;-46
2022/06/17 11:15:55;;;;;;;6.90;5.50;;;;;;;21.80;59.81;102143.84;4972473;28;20197;-53
2022/06/17 11:18:30;;;;;;;5.78;5.18;;;;;;;21.68;61.50;102150.94;4971206;28;20193;-46
2022/06/17 11:21:02;;;;;;;5.55;4.57;;;;;;;21.51;63.26;102146.56;4972090;28;20318;-48
2022/06/17 11:23:32;;;;;;;8.82;4.53;;;;;;;21.54;62.86;102157.28;4971352;28;20162;-45
2022/06/17 11:26:18;;;;;;;6.63;4.53;;;;;;;21.95;61.33;102152.84;4972403;28;20201;-46
2022/06/17 11:28:50;;;;;;;8.93;4.18;;;;;;;21.87;61.93;102147.06;4971877;28;20232;-47
2022/06/17 11:31:22;;;;;;;8.23;5.38;;;;;;;21.09;62.42;102156.44;4972056;28;20209;-47
2022/06/17 11:33:53;;;;;;;10.02;5.30;;;;;;;21.29;62.98;102157.91;4971318;28;20296;-47
2022/06/17 11:36:32;;;;;;;7.07;5.53;;;;;;;21.18;62.08;102149.53;4972043;28;20711;-49
2022/06/17 11:39:27;;;;;;;10.13;5.40;;;;;;;21.09;63.32;102148.25;4972212;28;20288;-48
2022/06/17 11:41:52;;;;;;;6.20;4.28;;;;;;;21.25;63.77;102156.34;4971364;28;20209;-47
2022/06/17 11:44:20;;;;;;;5.82;4.07;;;;;;;21.20;63.04;102151.19;4971567;28;20342;-46
2022/06/17 11:46:58;;;;;;;4.85;3.70;;;;;;;21.28;62.25;102152.56;4971290;28;20189;-47
2022/06/17 11:49:25;;;;;;;9.05;4.47;;;;;;;21.25;62.91;102153.63;5010822;22;20254;-46